sensor_id;sensor_type;location;lat;lon;timestamp;temperature;humidity
3684;DHT22;1858;48.716;9.648;2024-03-23T00:55:42;7.60;22.00
3684;DHT22;1858;48.716;9.648;2024-03-23T00:58:30;7.60;9.80
3684;DHT22;1858;48.716;9.648;2024-03-23T01:00:59;7.50;22.60
3684;DHT22;1858;48.716;9.648;2024-03-23T01:03:27;7.50;18.30
3684;DHT22;1858;48.716;9.648;2024-03-23T01:06:00;7.40;23.60
3684;DHT22;1858;48.716;9.648;2024-03-23T01:08:28;7.40;64.50
3684;DHT22;1858;48.716;9.648;2024-03-23T01:11:00;7.40;99.90
3684;DHT22;1858;48.716;9.648;2024-03-23T01:13:49;7.40;99.90
3684;DHT22;1858;48.716;9.648;2024-03-23T01:16:37;7.30;99.90
3684;DHT22;1858;48.716;9.648;2024-03-23T01:19:05;7.30;99.90
3684;DHT22;1858;48.716;9.648;2024-03-23T01:21:53;7.20;99.90
3684;DHT22;1858;48.716;9.648;2024-03-23T01:24:21;7.30;99.90
3684;DHT22;1858;48.716;9.648;2024-03-23T01:26:50;7.20;99.90
3684;DHT22;1858;48.716;9.648;2024-03-23T01:29:18;7.30;99.90
3684;DHT22;1858;48.716;9.648;2024-03-23T01:31:46;7.20;99.90
3684;DHT22;1858;48.716;9.648;2024-03-23T01:34:15;7.10;99.90
3684;DHT22;1858;48.716;9.648;2024-03-23T01:36:43;7.10;99.90
3684;DHT22;1858;48.716;9.648;2024-03-23T01:39:13;7.10;99.90
3684;DHT22;1858;48.716;9.648;2024-03-23T01:41:42;7.10;99.90
3684;DHT22;1858;48.716;9.648;2024-03-23T01:44:10;7.10;99.90
3684;DHT22;1858;48.716;9.648;2024-03-23T01:46:39;7.10;99.90
3684;DHT22;1858;48.716;9.648;2024-03-23T01:49:09;7.00;99.90
3684;DHT22;1858;48.716;9.648;2024-03-23T01:51:38;7.00;99.90
3684;DHT22;1858;48.716;9.648;2024-03-23T01:54:07;6.90;99.90
3684;DHT22;1858;48.716;9.648;2024-03-23T01:56:36;6.80;99.90
3684;DHT22;1858;48.716;9.648;2024-03-23T01:59:05;6.70;99.90
3684;DHT22;1858;48.716;9.648;2024-03-23T02:01:35;6.70;99.90
3684;DHT22;1858;48.716;9.648;2024-03-23T02:04:03;6.80;1.00
3684;DHT22;1858;48.716;9.648;2024-03-23T02:06:32;6.80;1.00
3684;DHT22;1858;48.716;9.648;2024-03-23T02:09:01;6.90;1.00
3684;DHT22;1858;48.716;9.648;2024-03-23T02:11:29;6.90;99.90
3684;DHT22;1858;48.716;9.648;2024-03-23T02:13:58;6.90;99.90
3684;DHT22;1858;48.716;9.648;2024-03-23T02:16:26;7.00;1.00
3684;DHT22;1858;48.716;9.648;2024-03-23T02:18:54;7.00;1.00
3684;DHT22;1858;48.716;9.648;2024-03-23T02:21:23;7.10;1.00
3684;DHT22;1858;48.716;9.648;2024-03-23T02:23:51;7.10;1.00
3684;DHT22;1858;48.716;9.648;2024-03-23T02:26:20;7.20;1.00
3684;DHT22;1858;48.716;9.648;2024-03-23T02:28:48;7.30;1.00
3684;DHT22;1858;48.716;9.648;2024-03-23T02:31:16;7.30;1.00
3684;DHT22;1858;48.716;9.648;2024-03-23T02:33:45;7.40;99.90
3684;DHT22;1858;48.716;9.648;2024-03-23T02:36:13;7.40;99.90
3684;DHT22;1858;48.716;9.648;2024-03-23T02:38:41;7.30;99.90
3684;DHT22;1858;48.716;9.648;2024-03-23T02:41:10;7.30;99.90
3684;DHT22;1858;48.716;9.648;2024-03-23T02:43:38;7.30;99.90
3684;DHT22;1858;48.716;9.648;2024-03-23T02:46:07;7.30;99.90
3684;DHT22;1858;48.716;9.648;2024-03-23T02:48:35;7.30;99.90
3684;DHT22;1858;48.716;9.648;2024-03-23T02:51:03;7.30;99.90
3684;DHT22;1858;48.716;9.648;2024-03-23T02:53:32;7.30;99.90
3684;DHT22;1858;48.716;9.648;2024-03-23T02:56:00;7.20;99.90
3684;DHT22;1858;48.716;9.648;2024-03-23T02:58:29;7.10;99.90
3684;DHT22;1858;48.716;9.648;2024-03-23T03:00:58;7.10;99.90
3684;DHT22;1858;48.716;9.648;2024-03-23T03:03:27;7.10;99.90
3684;DHT22;1858;48.716;9.648;2024-03-23T03:05:56;7.10;99.90
3684;DHT22;1858;48.716;9.648;2024-03-23T03:08:24;7.10;99.90
3684;DHT22;1858;48.716;9.648;2024-03-23T03:10:53;7.10;99.90
3684;DHT22;1858;48.716;9.648;2024-03-23T03:13:40;7.10;99.90
3684;DHT22;1858;48.716;9.648;2024-03-23T03:16:10;7.20;99.90
3684;DHT22;1858;48.716;9.648;2024-03-23T03:18:39;7.20;99.90
3684;DHT22;1858;48.716;9.648;2024-03-23T03:21:11;7.10;99.90
3684;DHT22;1858;48.716;9.648;2024-03-23T03:23:40;7.10;99.90
3684;DHT22;1858;48.716;9.648;2024-03-23T03:26:08;7.10;99.90
3684;DHT22;1858;48.716;9.648;2024-03-23T03:28:36;7.20;99.90
3684;DHT22;1858;48.716;9.648;2024-03-23T03:31:05;7.20;99.90
3684;DHT22;1858;48.716;9.648;2024-03-23T03:33:33;7.20;99.90
3684;DHT22;1858;48.716;9.648;2024-03-23T03:36:21;7.20;99.90
3684;DHT22;1858;48.716;9.648;2024-03-23T03:38:50;7.30;99.90
3684;DHT22;1858;48.716;9.648;2024-03-23T03:41:19;7.30;99.90
3684;DHT22;1858;48.716;9.648;2024-03-23T03:43:47;7.30;99.90
3684;DHT22;1858;48.716;9.648;2024-03-23T03:46:15;7.40;99.90
3684;DHT22;1858;48.716;9.648;2024-03-23T03:48:44;7.40;99.90
3684;DHT22;1858;48.716;9.648;2024-03-23T03:51:13;7.40;99.90
3684;DHT22;1858;48.716;9.648;2024-03-23T03:53:42;7.40;99.90
3684;DHT22;1858;48.716;9.648;2024-03-23T03:56:10;7.40;99.90
3684;DHT22;1858;48.716;9.648;2024-03-23T03:58:39;7.40;99.90
3684;DHT22;1858;48.716;9.648;2024-03-23T04:01:08;7.30;99.90
3684;DHT22;1858;48.716;9.648;2024-03-23T04:07:08;7.20;99.90
3684;DHT22;1858;48.716;9.648;2024-03-23T04:09:40;7.10;99.90
3684;DHT22;1858;48.716;9.648;2024-03-23T04:12:10;7.00;99.90
3684;DHT22;1858;48.716;9.648;2024-03-23T04:14:38;7.00;99.90
3684;DHT22;1858;48.716;9.648;2024-03-23T04:17:26;7.00;99.90
3684;DHT22;1858;48.716;9.648;2024-03-23T04:19:56;6.90;99.90
3684;DHT22;1858;48.716;9.648;2024-03-23T04:22:25;6.90;99.90
3684;DHT22;1858;48.716;9.648;2024-03-23T04:24:57;6.80;99.90
3684;DHT22;1858;48.716;9.648;2024-03-23T04:27:25;6.80;99.90
3684;DHT22;1858;48.716;9.648;2024-03-23T04:29:54;6.70;99.90
3684;DHT22;1858;48.716;9.648;2024-03-23T04:32:22;6.80;1.00
3684;DHT22;1858;48.716;9.648;2024-03-23T04:34:51;6.80;1.00
3684;DHT22;1858;48.716;9.648;2024-03-23T04:37:19;6.90;1.00
3684;DHT22;1858;48.716;9.648;2024-03-23T04:39:48;6.80;1.00
3684;DHT22;1858;48.716;9.648;2024-03-23T04:42:16;6.80;1.00
3684;DHT22;1858;48.716;9.648;2024-03-23T04:44:45;6.70;1.00
3684;DHT22;1858;48.716;9.648;2024-03-23T04:47:13;6.80;1.00
3684;DHT22;1858;48.716;9.648;2024-03-23T04:49:41;6.80;1.00
3684;DHT22;1858;48.716;9.648;2024-03-23T04:52:10;6.80;1.00
3684;DHT22;1858;48.716;9.648;2024-03-23T04:54:38;6.80;1.00
3684;DHT22;1858;48.716;9.648;2024-03-23T04:57:08;6.70;1.00
3684;DHT22;1858;48.716;9.648;2024-03-23T04:59:37;6.80;1.00
3684;DHT22;1858;48.716;9.648;2024-03-23T05:02:05;6.80;1.00
3684;DHT22;1858;48.716;9.648;2024-03-23T05:04:35;6.80;1.00
3684;DHT22;1858;48.716;9.648;2024-03-23T05:07:04;6.90;1.00
3684;DHT22;1858;48.716;9.648;2024-03-23T05:09:33;6.90;99.90
3684;DHT22;1858;48.716;9.648;2024-03-23T05:12:01;7.00;99.90
3684;DHT22;1858;48.716;9.648;2024-03-23T05:14:30;7.00;1.00
3684;DHT22;1858;48.716;9.648;2024-03-23T05:16:58;7.10;1.00
3684;DHT22;1858;48.716;9.648;2024-03-23T05:19:27;7.30;1.00
3684;DHT22;1858;48.716;9.648;2024-03-23T05:21:55;7.40;1.00
3684;DHT22;1858;48.716;9.648;2024-03-23T05:24:24;7.60;1.00
3684;DHT22;1858;48.716;9.648;2024-03-23T05:26:52;7.60;99.90
3684;DHT22;1858;48.716;9.648;2024-03-23T05:29:20;7.60;99.90
3684;DHT22;1858;48.716;9.648;2024-03-23T05:31:51;7.80;1.00
3684;DHT22;1858;48.716;9.648;2024-03-23T05:34:19;8.00;99.90
3684;DHT22;1858;48.716;9.648;2024-03-23T05:36:48;8.30;1.00
3684;DHT22;1858;48.716;9.648;2024-03-23T05:39:16;8.50;99.90
3684;DHT22;1858;48.716;9.648;2024-03-23T05:41:45;8.80;1.00
3684;DHT22;1858;48.716;9.648;2024-03-23T05:44:13;9.10;1.00
3684;DHT22;1858;48.716;9.648;2024-03-23T05:46:42;9.30;1.00
3684;DHT22;1858;48.716;9.648;2024-03-23T05:49:12;9.40;1.00
3684;DHT22;1858;48.716;9.648;2024-03-23T05:51:41;9.50;1.00
3684;DHT22;1858;48.716;9.648;2024-03-23T05:54:09;9.60;99.90
3684;DHT22;1858;48.716;9.648;2024-03-23T05:56:38;9.70;99.90
3684;DHT22;1858;48.716;9.648;2024-03-23T05:59:06;9.80;1.00
3684;DHT22;1858;48.716;9.648;2024-03-23T06:01:34;9.80;1.00
3684;DHT22;1858;48.716;9.648;2024-03-23T06:04:03;9.90;1.00
3684;DHT22;1858;48.716;9.648;2024-03-23T06:06:31;9.90;99.90
3684;DHT22;1858;48.716;9.648;2024-03-23T06:09:00;10.00;99.90
3684;DHT22;1858;48.716;9.648;2024-03-23T06:11:28;10.00;99.90
3684;DHT22;1858;48.716;9.648;2024-03-23T06:13:57;10.00;99.90
3684;DHT22;1858;48.716;9.648;2024-03-23T06:16:25;10.00;99.90
3684;DHT22;1858;48.716;9.648;2024-03-23T06:18:55;10.00;99.90
3684;DHT22;1858;48.716;9.648;2024-03-23T06:21:23;10.00;99.90
3684;DHT22;1858;48.716;9.648;2024-03-23T06:23:54;10.00;1.00
3684;DHT22;1858;48.716;9.648;2024-03-23T06:26:23;10.00;1.00
3684;DHT22;1858;48.716;9.648;2024-03-23T06:28:51;10.00;99.90
3684;DHT22;1858;48.716;9.648;2024-03-23T06:31:19;10.00;99.90
3684;DHT22;1858;48.716;9.648;2024-03-23T06:33:48;9.90;99.90
3684;DHT22;1858;48.716;9.648;2024-03-23T06:36:16;9.90;99.90
3684;DHT22;1858;48.716;9.648;2024-03-23T06:38:46;9.90;99.90
3684;DHT22;1858;48.716;9.648;2024-03-23T06:41:15;10.00;14.50
3684;DHT22;1858;48.716;9.648;2024-03-23T06:43:43;10.00;1.00
3684;DHT22;1858;48.716;9.648;2024-03-23T06:46:12;10.00;1.00
3684;DHT22;1858;48.716;9.648;2024-03-23T06:48:40;10.00;1.00
3684;DHT22;1858;48.716;9.648;2024-03-23T06:51:09;9.90;1.00
3684;DHT22;1858;48.716;9.648;2024-03-23T06:53:37;10.00;1.00
3684;DHT22;1858;48.716;9.648;2024-03-23T06:56:06;10.00;1.00
3684;DHT22;1858;48.716;9.648;2024-03-23T06:58:34;10.00;99.90
3684;DHT22;1858;48.716;9.648;2024-03-23T07:01:02;10.10;99.90
3684;DHT22;1858;48.716;9.648;2024-03-23T07:03:31;10.00;99.90
3684;DHT22;1858;48.716;9.648;2024-03-23T07:05:59;10.20;99.90
3684;DHT22;1858;48.716;9.648;2024-03-23T07:08:28;10.30;99.90
3684;DHT22;1858;48.716;9.648;2024-03-23T07:10:56;10.40;99.90
3684;DHT22;1858;48.716;9.648;2024-03-23T07:13:24;10.40;99.90
3684;DHT22;1858;48.716;9.648;2024-03-23T07:15:53;10.50;99.90
3684;DHT22;1858;48.716;9.648;2024-03-23T07:18:23;10.60;99.90
3684;DHT22;1858;48.716;9.648;2024-03-23T07:21:11;10.60;99.90
3684;DHT22;1858;48.716;9.648;2024-03-23T07:23:44;10.60;32.70
3684;DHT22;1858;48.716;9.648;2024-03-23T07:26:12;10.70;14.70
3684;DHT22;1858;48.716;9.648;2024-03-23T07:28:40;10.70;1.00
3684;DHT22;1858;48.716;9.648;2024-03-23T07:31:12;10.80;1.00
3684;DHT22;1858;48.716;9.648;2024-03-23T07:33:48;10.90;1.00
3684;DHT22;1858;48.716;9.648;2024-03-23T07:36:17;11.00;1.00
3684;DHT22;1858;48.716;9.648;2024-03-23T07:38:45;11.10;1.00
3684;DHT22;1858;48.716;9.648;2024-03-23T07:41:19;11.30;1.00
3684;DHT22;1858;48.716;9.648;2024-03-23T07:43:47;11.40;1.00
3684;DHT22;1858;48.716;9.648;2024-03-23T07:46:16;11.80;99.90
3684;DHT22;1858;48.716;9.648;2024-03-23T07:48:43;12.00;99.90
3684;DHT22;1858;48.716;9.648;2024-03-23T07:51:16;12.10;99.90
3684;DHT22;1858;48.716;9.648;2024-03-23T07:53:42;12.00;99.90
3684;DHT22;1858;48.716;9.648;2024-03-23T07:56:10;11.90;99.90
3684;DHT22;1858;48.716;9.648;2024-03-23T07:58:38;11.80;99.90
3684;DHT22;1858;48.716;9.648;2024-03-23T08:01:06;11.80;99.90
3684;DHT22;1858;48.716;9.648;2024-03-23T08:03:37;11.70;99.90
3684;DHT22;1858;48.716;9.648;2024-03-23T08:06:09;11.60;99.90
3684;DHT22;1858;48.716;9.648;2024-03-23T08:08:56;11.60;99.90
3684;DHT22;1858;48.716;9.648;2024-03-23T08:11:31;11.60;99.90
3684;DHT22;1858;48.716;9.648;2024-03-23T08:13:59;11.50;99.90
3684;DHT22;1858;48.716;9.648;2024-03-23T08:16:28;11.30;99.90
3684;DHT22;1858;48.716;9.648;2024-03-23T08:18:55;11.50;99.90
3684;DHT22;1858;48.716;9.648;2024-03-23T08:21:23;11.70;99.90
3684;DHT22;1858;48.716;9.648;2024-03-23T08:23:53;11.60;99.90
3684;DHT22;1858;48.716;9.648;2024-03-23T08:26:21;11.50;99.90
3684;DHT22;1858;48.716;9.648;2024-03-23T08:28:49;11.50;99.90
3684;DHT22;1858;48.716;9.648;2024-03-23T08:31:16;11.50;99.90
3684;DHT22;1858;48.716;9.648;2024-03-23T08:33:44;11.60;99.90
3684;DHT22;1858;48.716;9.648;2024-03-23T08:36:12;11.80;99.90
3684;DHT22;1858;48.716;9.648;2024-03-23T08:38:40;11.90;99.90
3684;DHT22;1858;48.716;9.648;2024-03-23T08:41:09;11.80;99.90
3684;DHT22;1858;48.716;9.648;2024-03-23T08:43:40;11.90;99.90
3684;DHT22;1858;48.716;9.648;2024-03-23T08:48:54;11.90;99.90
3684;DHT22;1858;48.716;9.648;2024-03-23T08:51:22;11.80;99.90
3684;DHT22;1858;48.716;9.648;2024-03-23T08:53:49;11.60;99.90
3684;DHT22;1858;48.716;9.648;2024-03-23T08:56:17;11.70;99.90
3684;DHT22;1858;48.716;9.648;2024-03-23T08:58:46;11.70;99.90
3684;DHT22;1858;48.716;9.648;2024-03-23T09:01:14;11.80;99.90
3684;DHT22;1858;48.716;9.648;2024-03-23T09:03:41;11.80;99.90
3684;DHT22;1858;48.716;9.648;2024-03-23T09:06:14;12.70;99.90
3684;DHT22;1858;48.716;9.648;2024-03-23T09:08:38;13.20;99.90
3684;DHT22;1858;48.716;9.648;2024-03-23T09:11:08;13.10;99.90
3684;DHT22;1858;48.716;9.648;2024-03-23T09:13:36;12.80;99.90
3684;DHT22;1858;48.716;9.648;2024-03-23T09:16:06;12.60;99.90
3684;DHT22;1858;48.716;9.648;2024-03-23T09:18:34;12.40;99.90
3684;DHT22;1858;48.716;9.648;2024-03-23T09:21:02;12.40;99.90
3684;DHT22;1858;48.716;9.648;2024-03-23T09:23:30;12.00;99.90
3684;DHT22;1858;48.716;9.648;2024-03-23T09:26:02;11.60;99.90
3684;DHT22;1858;48.716;9.648;2024-03-23T09:28:27;11.40;99.90
3684;DHT22;1858;48.716;9.648;2024-03-23T09:30:55;11.20;99.90
3684;DHT22;1858;48.716;9.648;2024-03-23T09:33:22;11.10;99.90
3684;DHT22;1858;48.716;9.648;2024-03-23T09:35:50;10.90;99.90
3684;DHT22;1858;48.716;9.648;2024-03-23T09:38:18;10.80;99.90
3684;DHT22;1858;48.716;9.648;2024-03-23T09:40:49;10.70;99.90
3684;DHT22;1858;48.716;9.648;2024-03-23T09:43:18;10.50;99.90
3684;DHT22;1858;48.716;9.648;2024-03-23T09:45:47;10.40;99.90
3684;DHT22;1858;48.716;9.648;2024-03-23T09:48:17;10.30;99.90
3684;DHT22;1858;48.716;9.648;2024-03-23T09:50:45;10.20;99.90
3684;DHT22;1858;48.716;9.648;2024-03-23T09:56:00;10.60;99.90
3684;DHT22;1858;48.716;9.648;2024-03-23T09:58:27;10.60;99.90
3684;DHT22;1858;48.716;9.648;2024-03-23T10:03:45;11.30;99.90
3684;DHT22;1858;48.716;9.648;2024-03-23T10:06:13;12.40;99.90
3684;DHT22;1858;48.716;9.648;2024-03-23T10:08:42;14.60;99.90
3684;DHT22;1858;48.716;9.648;2024-03-23T10:11:15;16.70;1.00
3684;DHT22;1858;48.716;9.648;2024-03-23T10:13:44;18.50;1.00
3684;DHT22;1858;48.716;9.648;2024-03-23T10:16:23;19.90;1.00
3684;DHT22;1858;48.716;9.648;2024-03-23T10:19:13;21.00;1.00
3684;DHT22;1858;48.716;9.648;2024-03-23T10:21:52;21.90;99.90
3684;DHT22;1858;48.716;9.648;2024-03-23T10:24:14;21.90;99.90
3684;DHT22;1858;48.716;9.648;2024-03-23T10:26:42;21.30;99.90
3684;DHT22;1858;48.716;9.648;2024-03-23T10:29:31;21.20;99.90
3684;DHT22;1858;48.716;9.648;2024-03-23T10:32:09;20.70;99.90
3684;DHT22;1858;48.716;9.648;2024-03-23T10:34:38;20.40;99.90
3684;DHT22;1858;48.716;9.648;2024-03-23T10:37:07;19.70;99.90
3684;DHT22;1858;48.716;9.648;2024-03-23T10:39:40;18.80;99.90
3684;DHT22;1858;48.716;9.648;2024-03-23T10:42:10;17.90;99.90
3684;DHT22;1858;48.716;9.648;2024-03-23T10:44:38;17.30;99.90
3684;DHT22;1858;48.716;9.648;2024-03-23T10:47:07;17.70;99.90
3684;DHT22;1858;48.716;9.648;2024-03-23T10:49:36;18.40;99.90
3684;DHT22;1858;48.716;9.648;2024-03-23T10:52:05;19.80;99.90
3684;DHT22;1858;48.716;9.648;2024-03-23T10:54:34;20.80;99.90
3684;DHT22;1858;48.716;9.648;2024-03-23T10:59:52;21.60;99.90
3684;DHT22;1858;48.716;9.648;2024-03-23T11:02:22;20.90;99.90
3684;DHT22;1858;48.716;9.648;2024-03-23T11:04:50;20.10;99.90
3684;DHT22;1858;48.716;9.648;2024-03-23T11:07:38;19.40;99.90
3684;DHT22;1858;48.716;9.648;2024-03-23T11:10:29;18.60;99.90
3684;DHT22;1858;48.716;9.648;2024-03-23T11:12:57;17.90;99.90
3684;DHT22;1858;48.716;9.648;2024-03-23T11:15:26;17.50;99.90
3684;DHT22;1858;48.716;9.648;2024-03-23T11:18:02;17.30;99.90
3684;DHT22;1858;48.716;9.648;2024-03-23T11:21:07;17.30;99.90
3684;DHT22;1858;48.716;9.648;2024-03-23T11:23:35;17.30;99.90
3684;DHT22;1858;48.716;9.648;2024-03-23T11:26:07;17.10;99.90
3684;DHT22;1858;48.716;9.648;2024-03-23T11:28:35;16.70;99.90
3684;DHT22;1858;48.716;9.648;2024-03-23T11:31:09;15.90;99.90
3684;DHT22;1858;48.716;9.648;2024-03-23T11:33:39;15.00;99.90
3684;DHT22;1858;48.716;9.648;2024-03-23T11:36:07;14.20;99.90
3684;DHT22;1858;48.716;9.648;2024-03-23T11:38:38;13.20;1.00
3684;DHT22;1858;48.716;9.648;2024-03-23T11:41:07;12.40;1.00
3684;DHT22;1858;48.716;9.648;2024-03-23T11:43:35;11.90;1.00
3684;DHT22;1858;48.716;9.648;2024-03-23T11:46:03;11.60;1.00
3684;DHT22;1858;48.716;9.648;2024-03-23T11:48:32;11.40;1.00
3684;DHT22;1858;48.716;9.648;2024-03-23T11:51:20;11.10;1.00
3684;DHT22;1858;48.716;9.648;2024-03-23T11:53:48;10.90;1.00
3684;DHT22;1858;48.716;9.648;2024-03-23T11:56:16;10.70;1.00
3684;DHT22;1858;48.716;9.648;2024-03-23T11:58:45;10.90;1.00
3684;DHT22;1858;48.716;9.648;2024-03-23T12:01:15;11.00;1.00
3684;DHT22;1858;48.716;9.648;2024-03-23T12:03:44;11.20;1.00
3684;DHT22;1858;48.716;9.648;2024-03-23T12:06:32;11.30;1.00
3684;DHT22;1858;48.716;9.648;2024-03-23T12:09:07;11.40;1.00
3684;DHT22;1858;48.716;9.648;2024-03-23T12:11:36;11.50;1.00
3684;DHT22;1858;48.716;9.648;2024-03-23T12:14:04;11.70;1.00
3684;DHT22;1858;48.716;9.648;2024-03-23T12:16:33;11.60;1.00
3684;DHT22;1858;48.716;9.648;2024-03-23T12:19:04;11.60;1.00
3684;DHT22;1858;48.716;9.648;2024-03-23T12:21:33;11.40;1.00
3684;DHT22;1858;48.716;9.648;2024-03-23T12:24:01;11.00;1.60
3684;DHT22;1858;48.716;9.648;2024-03-23T12:26:30;10.90;35.70
3684;DHT22;1858;48.716;9.648;2024-03-23T12:28:58;11.10;29.50
3684;DHT22;1858;48.716;9.648;2024-03-23T12:31:27;11.00;20.70
3684;DHT22;1858;48.716;9.648;2024-03-23T12:33:55;10.80;9.30
3684;DHT22;1858;48.716;9.648;2024-03-23T12:36:23;10.60;15.70
3684;DHT22;1858;48.716;9.648;2024-03-23T12:38:52;10.50;32.70
3684;DHT22;1858;48.716;9.648;2024-03-23T12:41:20;10.60;45.70
3684;DHT22;1858;48.716;9.648;2024-03-23T12:43:48;10.50;32.20
3684;DHT22;1858;48.716;9.648;2024-03-23T12:46:17;10.70;28.40
3684;DHT22;1858;48.716;9.648;2024-03-23T12:48:45;11.20;21.50
3684;DHT22;1858;48.716;9.648;2024-03-23T12:51:14;11.30;3.20
3684;DHT22;1858;48.716;9.648;2024-03-23T12:53:42;11.50;1.00
3684;DHT22;1858;48.716;9.648;2024-03-23T12:56:30;11.70;1.00
3684;DHT22;1858;48.716;9.648;2024-03-23T12:58:58;11.90;1.00
3684;DHT22;1858;48.716;9.648;2024-03-23T13:01:27;11.70;1.00
3684;DHT22;1858;48.716;9.648;2024-03-23T13:03:55;11.70;1.00
3684;DHT22;1858;48.716;9.648;2024-03-23T13:06:24;11.70;1.00
3684;DHT22;1858;48.716;9.648;2024-03-23T13:08:52;11.50;1.00
3684;DHT22;1858;48.716;9.648;2024-03-23T13:11:22;11.60;1.00
3684;DHT22;1858;48.716;9.648;2024-03-23T13:13:51;11.70;1.00
3684;DHT22;1858;48.716;9.648;2024-03-23T13:16:19;11.90;1.00
3684;DHT22;1858;48.716;9.648;2024-03-23T13:18:48;11.80;1.00
3684;DHT22;1858;48.716;9.648;2024-03-23T13:21:16;12.00;1.00
3684;DHT22;1858;48.716;9.648;2024-03-23T13:23:48;11.90;1.00
3684;DHT22;1858;48.716;9.648;2024-03-23T13:26:18;12.00;1.00
3684;DHT22;1858;48.716;9.648;2024-03-23T13:28:46;12.00;1.00
3684;DHT22;1858;48.716;9.648;2024-03-23T13:31:15;11.70;1.00
3684;DHT22;1858;48.716;9.648;2024-03-23T13:33:43;11.60;1.00
3684;DHT22;1858;48.716;9.648;2024-03-23T13:36:11;11.80;1.00
3684;DHT22;1858;48.716;9.648;2024-03-23T13:38:40;12.00;1.00
3684;DHT22;1858;48.716;9.648;2024-03-23T13:41:08;12.10;1.00
3684;DHT22;1858;48.716;9.648;2024-03-23T13:43:38;12.30;1.00
3684;DHT22;1858;48.716;9.648;2024-03-23T13:46:08;12.40;1.00
3684;DHT22;1858;48.716;9.648;2024-03-23T13:48:36;12.10;1.00
3684;DHT22;1858;48.716;9.648;2024-03-23T13:51:05;11.50;1.00
3684;DHT22;1858;48.716;9.648;2024-03-23T13:53:33;11.70;1.00
3684;DHT22;1858;48.716;9.648;2024-03-23T13:56:02;11.90;1.00
3684;DHT22;1858;48.716;9.648;2024-03-23T13:58:30;12.00;1.00
3684;DHT22;1858;48.716;9.648;2024-03-23T14:00:58;12.00;1.00
3684;DHT22;1858;48.716;9.648;2024-03-23T14:03:27;12.10;1.00
3684;DHT22;1858;48.716;9.648;2024-03-23T14:06:16;11.60;1.00
3684;DHT22;1858;48.716;9.648;2024-03-23T14:08:44;11.40;1.00
3684;DHT22;1858;48.716;9.648;2024-03-23T14:11:13;11.20;1.00
3684;DHT22;1858;48.716;9.648;2024-03-23T14:13:41;11.10;1.00
3684;DHT22;1858;48.716;9.648;2024-03-23T14:16:10;11.00;1.00
3684;DHT22;1858;48.716;9.648;2024-03-23T14:18:38;11.00;1.00
3684;DHT22;1858;48.716;9.648;2024-03-23T14:21:06;10.80;1.00
3684;DHT22;1858;48.716;9.648;2024-03-23T14:23:35;10.80;1.00
3684;DHT22;1858;48.716;9.648;2024-03-23T14:26:03;10.70;1.00
3684;DHT22;1858;48.716;9.648;2024-03-23T14:28:32;10.90;1.00
3684;DHT22;1858;48.716;9.648;2024-03-23T14:31:01;10.90;1.00
3684;DHT22;1858;48.716;9.648;2024-03-23T14:33:30;10.80;1.00
3684;DHT22;1858;48.716;9.648;2024-03-23T14:36:00;10.80;1.00
3684;DHT22;1858;48.716;9.648;2024-03-23T14:38:29;10.90;1.00
3684;DHT22;1858;48.716;9.648;2024-03-23T14:41:16;10.90;1.00
3684;DHT22;1858;48.716;9.648;2024-03-23T14:43:45;11.10;1.00
3684;DHT22;1858;48.716;9.648;2024-03-23T14:46:16;11.10;1.00
3684;DHT22;1858;48.716;9.648;2024-03-23T14:48:45;10.80;1.00
3684;DHT22;1858;48.716;9.648;2024-03-23T14:51:13;10.50;1.00
3684;DHT22;1858;48.716;9.648;2024-03-23T14:53:45;10.10;1.00
3684;DHT22;1858;48.716;9.648;2024-03-23T14:56:14;9.70;1.00
3684;DHT22;1858;48.716;9.648;2024-03-23T14:58:43;9.50;1.00
3684;DHT22;1858;48.716;9.648;2024-03-23T15:01:14;9.40;1.00
3684;DHT22;1858;48.716;9.648;2024-03-23T15:03:42;9.40;20.20
3684;DHT22;1858;48.716;9.648;2024-03-23T15:06:11;9.50;45.60
3684;DHT22;1858;48.716;9.648;2024-03-23T15:08:40;9.30;34.80
3684;DHT22;1858;48.716;9.648;2024-03-23T15:11:08;9.30;6.90
3684;DHT22;1858;48.716;9.648;2024-03-23T15:13:38;9.40;1.00
3684;DHT22;1858;48.716;9.648;2024-03-23T15:16:06;9.40;1.00
3684;DHT22;1858;48.716;9.648;2024-03-23T15:18:35;9.40;1.00
3684;DHT22;1858;48.716;9.648;2024-03-23T15:21:04;9.30;1.00
3684;DHT22;1858;48.716;9.648;2024-03-23T15:23:34;9.30;1.00
3684;DHT22;1858;48.716;9.648;2024-03-23T15:26:03;9.10;1.00
3684;DHT22;1858;48.716;9.648;2024-03-23T15:28:33;9.20;1.00
3684;DHT22;1858;48.716;9.648;2024-03-23T15:34:19;9.40;1.00
3684;DHT22;1858;48.716;9.648;2024-03-23T15:36:50;9.40;1.00
3684;DHT22;1858;48.716;9.648;2024-03-23T15:39:19;9.30;1.00
3684;DHT22;1858;48.716;9.648;2024-03-23T15:44:31;9.20;1.00
3684;DHT22;1858;48.716;9.648;2024-03-23T15:46:59;9.50;1.00
3684;DHT22;1858;48.716;9.648;2024-03-23T15:49:27;9.70;1.00
3684;DHT22;1858;48.716;9.648;2024-03-23T15:51:56;9.80;1.00
3684;DHT22;1858;48.716;9.648;2024-03-23T15:54:25;9.80;1.00
3684;DHT22;1858;48.716;9.648;2024-03-23T15:56:53;9.80;1.00
3684;DHT22;1858;48.716;9.648;2024-03-23T15:59:22;9.70;1.00
3684;DHT22;1858;48.716;9.648;2024-03-23T16:01:50;9.50;1.00
3684;DHT22;1858;48.716;9.648;2024-03-23T16:04:18;9.20;1.00
3684;DHT22;1858;48.716;9.648;2024-03-23T16:06:47;9.10;1.00
3684;DHT22;1858;48.716;9.648;2024-03-23T16:09:15;9.00;1.00
3684;DHT22;1858;48.716;9.648;2024-03-23T16:11:44;8.90;1.00
3684;DHT22;1858;48.716;9.648;2024-03-23T16:14:12;8.80;1.00
3684;DHT22;1858;48.716;9.648;2024-03-23T16:16:40;8.90;1.00
3684;DHT22;1858;48.716;9.648;2024-03-23T16:19:09;8.90;1.00
3684;DHT22;1858;48.716;9.648;2024-03-23T16:21:39;8.90;1.00
3684;DHT22;1858;48.716;9.648;2024-03-23T16:24:07;9.00;1.00
3684;DHT22;1858;48.716;9.648;2024-03-23T16:26:36;8.90;1.00
3684;DHT22;1858;48.716;9.648;2024-03-23T16:29:04;8.80;1.00
3684;DHT22;1858;48.716;9.648;2024-03-23T16:31:32;8.80;1.00
3684;DHT22;1858;48.716;9.648;2024-03-23T16:34:01;8.50;1.00
3684;DHT22;1858;48.716;9.648;2024-03-23T16:36:29;8.40;1.00
3684;DHT22;1858;48.716;9.648;2024-03-23T16:38:58;8.30;1.00
3684;DHT22;1858;48.716;9.648;2024-03-23T16:41:26;8.20;1.00
3684;DHT22;1858;48.716;9.648;2024-03-23T16:43:54;8.10;7.10
3684;DHT22;1858;48.716;9.648;2024-03-23T16:46:24;7.90;42.30
3684;DHT22;1858;48.716;9.648;2024-03-23T16:48:52;7.90;77.50
3684;DHT22;1858;48.716;9.648;2024-03-23T16:51:21;8.00;99.90
3684;DHT22;1858;48.716;9.648;2024-03-23T16:53:49;8.00;79.30
3684;DHT22;1858;48.716;9.648;2024-03-23T16:56:18;8.00;88.70
3684;DHT22;1858;48.716;9.648;2024-03-23T16:58:46;8.10;89.00
3684;DHT22;1858;48.716;9.648;2024-03-23T17:01:16;8.00;85.60
3684;DHT22;1858;48.716;9.648;2024-03-23T17:03:49;8.00;94.20
3684;DHT22;1858;48.716;9.648;2024-03-23T17:06:38;7.90;93.40
3684;DHT22;1858;48.716;9.648;2024-03-23T17:09:06;7.90;90.30
3684;DHT22;1858;48.716;9.648;2024-03-23T17:11:35;7.80;85.80
3684;DHT22;1858;48.716;9.648;2024-03-23T17:14:03;7.70;99.90
3684;DHT22;1858;48.716;9.648;2024-03-23T17:16:31;7.70;99.90
3684;DHT22;1858;48.716;9.648;2024-03-23T17:19:00;7.50;99.90
3684;DHT22;1858;48.716;9.648;2024-03-23T17:21:28;7.60;99.90
3684;DHT22;1858;48.716;9.648;2024-03-23T17:23:57;7.60;53.70
3684;DHT22;1858;48.716;9.648;2024-03-23T17:26:25;7.70;31.70
3684;DHT22;1858;48.716;9.648;2024-03-23T17:28:54;7.70;21.70
3684;DHT22;1858;48.716;9.648;2024-03-23T17:31:22;7.70;11.20
3684;DHT22;1858;48.716;9.648;2024-03-23T17:33:51;7.60;9.20
3684;DHT22;1858;48.716;9.648;2024-03-23T17:36:20;7.60;1.00
3684;DHT22;1858;48.716;9.648;2024-03-23T17:38:50;7.50;1.00
3684;DHT22;1858;48.716;9.648;2024-03-23T17:41:18;7.50;3.50
3684;DHT22;1858;48.716;9.648;2024-03-23T17:43:47;7.50;8.10
3684;DHT22;1858;48.716;9.648;2024-03-23T17:46:16;7.50;6.60
3684;DHT22;1858;48.716;9.648;2024-03-23T17:48:44;7.50;7.20